Terminal Aerodrome Forecast
Issued by NWS

Home | Current Version | Previous Version | Text Only | Print | Product List | Glossary On
Versions: 1 2 3 4 5 6 7 8 9 10 11 12 13 14 15 16 17 18 19 20 21 22
000
FTAK31 PANC 222322
TAFACD
TAF
PACD 222322Z 2300/2324 15035G45KT 4SM BR BKN004
      TEMPO 2300/2304 2SM BR SCT004 OVC130
     FM231800 15035G45KT P6SM -RA BKN008 OVC025=

USA.gov is the U.S. government's official web portal to all federal, state and local government web resources and services.